createdAt,value
2023-02-22T00:02:23.957Z,7.38
2023-02-22T00:04:50.649Z,3.88
2023-02-22T00:07:17.164Z,5.95
2023-02-22T00:09:43.640Z,5.70
2023-02-22T00:12:10.290Z,3.33
2023-02-22T00:14:36.851Z,3.20
2023-02-22T00:17:03.464Z,6.00
2023-02-22T00:19:29.997Z,2.45
2023-02-22T00:21:56.572Z,5.60
2023-02-22T00:24:23.559Z,4.32
2023-02-22T00:26:54.950Z,2.17
2023-02-22T00:29:22.494Z,2.47
2023-02-22T00:31:49.293Z,2.78
2023-02-22T00:34:16.196Z,3.00
2023-02-22T00:36:47.783Z,5.25
2023-02-22T00:39:14.393Z,3.17
2023-02-22T00:41:40.912Z,2.13
2023-02-22T00:44:07.624Z,2.78
2023-02-22T00:46:34.169Z,2.80
2023-02-22T00:49:00.776Z,4.28
2023-02-22T00:51:27.362Z,5.20
2023-02-22T00:53:53.942Z,2.40
2023-02-22T00:56:20.810Z,4.78
2023-02-22T00:58:47.426Z,3.97
2023-02-22T01:01:14.064Z,4.70
2023-02-22T01:03:40.705Z,4.47
2023-02-22T01:06:07.942Z,4.07
2023-02-22T01:08:34.565Z,4.53
2023-02-22T01:11:01.213Z,3.28
2023-02-22T01:13:27.766Z,5.43
2023-02-22T01:15:54.346Z,2.70
2023-02-22T01:18:20.885Z,4.55
2023-02-22T01:20:48.290Z,3.65
2023-02-22T01:23:15.622Z,4.32
2023-02-22T01:25:42.116Z,2.95
2023-02-22T01:28:08.929Z,3.22
2023-02-22T01:30:36.925Z,4.05
2023-02-22T01:33:05.776Z,4.25
2023-02-22T01:35:38.032Z,4.10
2023-02-22T01:38:04.841Z,3.35
2023-02-22T01:40:35.082Z,4.35
2023-02-22T01:43:18.637Z,6.57
2023-02-22T01:45:49.097Z,4.60
2023-02-22T01:48:44.557Z,4.43
2023-02-22T01:51:16.777Z,5.15
2023-02-22T01:54:06.507Z,8.77
2023-02-22T01:56:37.402Z,3.95
2023-02-22T01:59:08.290Z,1.85
2023-02-22T02:01:37.017Z,3.25
2023-02-22T02:04:07.507Z,6.03
2023-02-22T02:06:36.099Z,7.47
2023-02-22T02:09:22.918Z,3.65
2023-02-22T02:11:49.724Z,3.05
2023-02-22T02:14:16.949Z,6.25
2023-02-22T02:16:47.455Z,5.57
2023-02-22T02:19:34.759Z,3.85
2023-02-22T02:22:29.136Z,8.48
2023-02-22T02:25:17.732Z,4.90
2023-02-22T02:28:11.241Z,5.13
2023-02-22T02:30:52.964Z,4.38
2023-02-22T02:33:19.477Z,4.72
2023-02-22T02:36:14.515Z,5.43
2023-02-22T02:39:09.043Z,4.80
2023-02-22T02:41:53.360Z,5.50
2023-02-22T02:44:31.317Z,4.68
2023-02-22T02:47:05.121Z,4.45
2023-02-22T02:49:40.053Z,4.10
2023-02-22T02:52:09.177Z,6.13
2023-02-22T02:54:37.879Z,4.18
2023-02-22T02:57:04.795Z,4.63
2023-02-22T02:59:37.559Z,4.00
2023-02-22T03:02:22.174Z,5.43
2023-02-22T03:05:01.024Z,4.00
2023-02-22T03:07:49.782Z,4.38
2023-02-22T03:10:32.215Z,8.00
2023-02-22T03:13:28.841Z,5.35
2023-02-22T03:16:17.569Z,3.80
2023-02-22T03:18:56.477Z,3.67
2023-02-22T03:21:31.713Z,6.22
2023-02-22T03:24:01.250Z,5.78
2023-02-22T03:26:36.461Z,4.82
2023-02-22T03:29:07.928Z,5.32
2023-02-22T03:31:40.437Z,5.28
2023-02-22T03:34:20.165Z,6.20
2023-02-22T03:37:18.231Z,5.15
2023-02-22T03:39:49.376Z,7.95
2023-02-22T03:42:22.716Z,6.75
2023-02-22T03:44:53.311Z,6.00
2023-02-22T03:47:32.467Z,7.45
2023-02-22T03:50:16.403Z,3.22
2023-02-22T03:52:44.709Z,4.15
2023-02-22T03:55:17.348Z,3.88
2023-02-22T03:57:49.399Z,3.47
2023-02-22T04:00:21.374Z,3.17
2023-02-22T04:02:47.923Z,4.13
2023-02-22T04:05:19.439Z,3.67
2023-02-22T04:07:47.254Z,4.53
2023-02-22T04:10:16.745Z,5.05
2023-02-22T04:12:43.821Z,4.78
2023-02-22T04:15:13.995Z,4.50
2023-02-22T04:17:40.572Z,5.18
2023-02-22T04:20:10.370Z,3.90
2023-02-22T04:22:57.537Z,2.55
2023-02-22T04:25:24.512Z,3.25
2023-02-22T04:27:52.230Z,3.25
2023-02-22T04:30:23.308Z,7.30
2023-02-22T04:32:50.219Z,10.93
2023-02-22T04:35:20.893Z,6.32
2023-02-22T04:37:47.602Z,4.97
2023-02-22T04:40:16.194Z,5.80
2023-02-22T04:42:42.945Z,4.32
2023-02-22T04:45:10.700Z,4.97
2023-02-22T04:47:38.259Z,3.40
2023-02-22T04:50:09.222Z,3.00
2023-02-22T04:52:35.758Z,6.40
2023-02-22T04:55:02.546Z,6.00
2023-02-22T04:57:29.302Z,10.30
2023-02-22T04:59:56.032Z,4.13
2023-02-22T05:02:24.364Z,3.92
2023-02-22T05:04:51.011Z,11.63
2023-02-22T05:07:18.002Z,5.07
2023-02-22T05:09:44.663Z,5.00
2023-02-22T05:12:11.231Z,6.55
2023-02-22T05:14:38.215Z,4.28
2023-02-22T05:17:04.852Z,6.30
2023-02-22T05:19:31.383Z,5.25
2023-02-22T05:21:57.994Z,3.38
2023-02-22T05:24:24.617Z,4.25
2023-02-22T05:26:51.300Z,5.80
2023-02-22T05:29:17.938Z,3.03
2023-02-22T05:31:44.572Z,4.90
2023-02-22T05:34:11.371Z,6.65
2023-02-22T05:36:37.943Z,4.55
2023-02-22T05:39:04.697Z,3.35
2023-02-22T05:41:31.263Z,3.88
2023-02-22T05:43:57.806Z,4.22
2023-02-22T05:46:24.330Z,3.22
2023-02-22T05:48:51.057Z,6.72
2023-02-22T05:51:18.136Z,4.75
2023-02-22T05:53:44.991Z,5.18
2023-02-22T05:56:11.636Z,6.65
2023-02-22T05:58:38.191Z,5.35
2023-02-22T06:01:04.969Z,4.50
2023-02-22T06:03:31.532Z,11.57
2023-02-22T06:05:58.175Z,7.60
2023-02-22T06:08:24.701Z,5.95
2023-02-22T06:10:51.326Z,2.83
2023-02-22T06:13:17.831Z,12.43
2023-02-22T06:15:44.476Z,7.72
2023-02-22T06:18:11.090Z,9.07
2023-02-22T06:20:37.670Z,9.38
2023-02-22T06:23:04.484Z,7.45
2023-02-22T06:25:31.630Z,10.73
2023-02-22T06:27:59.121Z,7.90
2023-02-22T06:30:26.721Z,7.60
2023-02-22T06:32:53.282Z,7.30
2023-02-22T06:35:20.036Z,8.85
2023-02-22T06:37:47.923Z,6.40
2023-02-22T06:40:15.259Z,8.05
2023-02-22T06:42:41.749Z,7.50
2023-02-22T06:45:09.140Z,5.55
2023-02-22T06:47:42.009Z,6.95
2023-02-22T06:50:19.045Z,7.95
2023-02-22T06:52:45.551Z,6.20
2023-02-22T06:55:12.241Z,5.03
2023-02-22T06:57:38.914Z,7.18
2023-02-22T07:00:05.932Z,6.60
2023-02-22T07:02:32.534Z,6.70
2023-02-22T07:04:59.092Z,3.72
2023-02-22T07:07:26.155Z,4.13
2023-02-22T07:09:52.801Z,8.80
2023-02-22T07:12:19.538Z,5.28
2023-02-22T07:14:46.158Z,4.28
2023-02-22T07:17:12.703Z,7.10
2023-02-22T07:19:39.248Z,4.47
2023-02-22T07:22:05.740Z,5.38
2023-02-22T07:24:32.308Z,4.45
2023-02-22T07:27:01.100Z,3.83
2023-02-22T07:29:27.945Z,2.88
2023-02-22T07:31:54.556Z,4.20
2023-02-22T07:34:21.257Z,4.13
2023-02-22T07:36:47.787Z,8.13
2023-02-22T07:39:14.498Z,4.72
2023-02-22T07:41:41.303Z,4.80
2023-02-22T07:44:21.568Z,6.55
2023-02-22T07:46:48.615Z,4.63
2023-02-22T07:49:15.248Z,5.60
2023-02-22T07:51:41.967Z,3.92
2023-02-22T07:54:08.576Z,9.88
2023-02-22T07:56:35.187Z,4.32
2023-02-22T07:59:01.658Z,3.80
2023-02-22T08:01:28.271Z,5.05
2023-02-22T08:03:54.847Z,7.47
2023-02-22T08:06:21.543Z,7.28
2023-02-22T08:08:48.047Z,4.35
2023-02-22T08:11:14.991Z,3.83
2023-02-22T08:13:41.717Z,4.90
2023-02-22T08:16:08.316Z,4.50
2023-02-22T08:18:34.791Z,3.17
2023-02-22T08:21:01.321Z,9.52
2023-02-22T08:23:27.885Z,4.00
2023-02-22T08:25:55.379Z,2.72
2023-02-22T08:28:24.320Z,4.63
2023-02-22T08:30:51.104Z,2.78
2023-02-22T08:33:18.685Z,4.97
2023-02-22T08:35:46.933Z,9.47
2023-02-22T08:40:48.550Z,3.45
2023-02-22T08:43:15.350Z,6.70
2023-02-22T08:45:43.171Z,1.67
2023-02-22T08:48:09.779Z,3.30
2023-02-22T08:50:36.401Z,4.28
2023-02-22T08:53:04.922Z,2.97
2023-02-22T08:55:34.422Z,3.85
2023-02-22T08:58:01.952Z,2.97
2023-02-22T09:00:30.200Z,4.13
2023-02-22T09:02:56.901Z,2.65
2023-02-22T09:05:23.497Z,5.05
2023-02-22T09:07:50.106Z,4.00
2023-02-22T09:10:20.021Z,8.32
2023-02-22T09:12:46.556Z,2.97
2023-02-22T09:15:15.031Z,2.95
2023-02-22T09:17:41.558Z,5.53
2023-02-22T09:20:10.290Z,3.33
2023-02-22T09:22:36.863Z,2.22
2023-02-22T09:25:15.968Z,11.73
2023-02-22T09:27:44.162Z,2.95
2023-02-22T09:30:34.655Z,1.67
2023-02-22T09:33:04.821Z,3.03
2023-02-22T09:35:31.483Z,1.70
2023-02-22T09:38:00.135Z,3.80
2023-02-22T09:40:29.105Z,2.45
2023-02-22T09:43:09.309Z,4.32
2023-02-22T09:46:09.795Z,2.17
2023-02-22T09:48:51.519Z,3.15
2023-02-22T09:51:20.255Z,7.05
2023-02-22T09:53:50.957Z,3.40
2023-02-22T09:56:20.508Z,3.60
2023-02-22T09:58:55.414Z,5.07
2023-02-22T10:01:45.319Z,2.30
2023-02-22T10:04:41.004Z,3.55
2023-02-22T10:07:26.494Z,2.95
2023-02-22T10:09:55.388Z,3.60
2023-02-22T10:12:39.458Z,3.42
2023-02-22T10:15:21.061Z,3.95
2023-02-22T10:18:10.670Z,2.92
2023-02-22T10:20:45.047Z,5.15
2023-02-22T10:23:42.308Z,2.33
2023-02-22T10:26:11.759Z,2.15
2023-02-22T10:28:43.931Z,1.58
2023-02-22T10:31:21.948Z,3.05
2023-02-22T10:33:56.825Z,2.50
2023-02-22T10:36:25.388Z,6.43
2023-02-22T10:38:58.441Z,2.25
2023-02-22T10:41:38.893Z,1.55
2023-02-22T10:44:05.405Z,8.70
2023-02-22T10:46:33.422Z,2.88
2023-02-22T10:49:06.335Z,4.85
2023-02-22T10:51:33.315Z,3.35
2023-02-22T10:54:24.945Z,7.85
2023-02-22T10:56:54.328Z,2.35
2023-02-22T10:59:50.036Z,4.25
2023-02-22T11:02:21.499Z,2.58
2023-02-22T11:04:51.373Z,2.95
2023-02-22T11:07:36.919Z,2.55
2023-02-22T11:10:06.538Z,3.13
2023-02-22T11:12:35.616Z,4.05
2023-02-22T11:15:17.152Z,2.72
2023-02-22T11:17:46.280Z,1.75
2023-02-22T11:20:20.478Z,1.40
2023-02-22T11:22:47.025Z,8.30
2023-02-22T11:25:21.204Z,2.03
2023-02-22T11:27:48.100Z,3.20
2023-02-22T11:30:26.358Z,6.50
2023-02-22T11:32:59.083Z,2.80
2023-02-22T11:35:28.296Z,3.83
2023-02-22T11:38:15.643Z,7.00
2023-02-22T11:40:42.818Z,2.70
2023-02-22T11:43:19.594Z,1.30
2023-02-22T11:46:04.406Z,2.80
2023-02-22T11:48:35.512Z,2.58
2023-02-22T11:51:06.536Z,3.40
2023-02-22T11:54:11.817Z,2.42
2023-02-22T11:56:48.098Z,2.58
2023-02-22T11:59:20.508Z,1.45
2023-02-22T12:02:28.804Z,1.83
2023-02-22T12:05:07.580Z,4.07
2023-02-22T12:08:05.278Z,3.30
2023-02-22T12:11:21.265Z,2.22
2023-02-22T12:14:21.453Z,3.05
2023-02-22T12:17:02.921Z,1.77
2023-02-22T12:19:41.540Z,0.82
2023-02-22T12:22:36.043Z,1.70
2023-02-22T12:25:10.498Z,1.95
2023-02-22T12:27:44.204Z,1.13
2023-02-22T12:30:23.133Z,3.47
2023-02-22T12:32:53.728Z,0.75
2023-02-22T12:35:27.017Z,2.35
2023-02-22T12:38:11.904Z,0.77
2023-02-22T12:40:52.979Z,2.88
2023-02-22T12:43:32.795Z,4.65
2023-02-22T12:46:09.433Z,3.97
2023-02-22T12:48:46.192Z,2.97
2023-02-22T12:51:36.765Z,0.80
2023-02-22T12:54:20.910Z,1.27
2023-02-22T12:56:53.386Z,1.70
2023-02-22T12:59:33.424Z,4.70
2023-02-22T13:02:12.439Z,1.58
2023-02-22T13:04:39.091Z,1.80
2023-02-22T13:07:28.766Z,1.50
2023-02-22T13:10:26.476Z,1.55
2023-02-22T13:15:55.051Z,4.80
2023-02-22T13:18:37.577Z,2.22
2023-02-22T13:21:36.554Z,1.23
2023-02-22T13:24:16.967Z,1.70
2023-02-22T13:26:46.686Z,1.08
2023-02-22T13:29:20.490Z,1.13
2023-02-22T13:32:09.707Z,1.75
2023-02-22T13:34:43.355Z,1.60
2023-02-22T13:37:35.771Z,1.42
2023-02-22T13:40:14.217Z,3.72
2023-02-22T13:43:01.064Z,1.40
2023-02-22T13:45:27.857Z,1.85
2023-02-22T13:48:33.316Z,1.95
2023-02-22T13:51:34.380Z,1.48
2023-02-22T13:54:17.879Z,0.95
2023-02-22T13:56:46.992Z,1.10
2023-02-22T13:59:29.276Z,1.20
2023-02-22T14:01:57.442Z,0.90
2023-02-22T14:04:27.053Z,0.98
2023-02-22T14:07:18.553Z,0.95
2023-02-22T14:09:56.644Z,3.25
2023-02-22T14:12:28.970Z,1.30
2023-02-22T14:15:22.037Z,1.17
2023-02-22T14:18:03.768Z,0.85
2023-02-22T14:20:37.809Z,1.67
2023-02-22T14:23:36.325Z,1.95
2023-02-22T14:26:46.069Z,3.17
2023-02-22T14:29:18.146Z,2.22
2023-02-22T14:31:44.725Z,0.50
2023-02-22T14:34:14.501Z,2.38
2023-02-22T14:36:51.698Z,3.40
2023-02-22T14:39:30.268Z,1.00
2023-02-22T14:42:21.726Z,2.30
2023-02-22T14:44:48.214Z,4.53
2023-02-22T14:47:40.560Z,2.28
2023-02-22T14:50:20.641Z,5.82
2023-02-22T14:52:48.896Z,1.85
2023-02-22T14:58:08.165Z,0.77
2023-02-22T15:00:41.462Z,2.95
2023-02-22T15:03:23.466Z,3.90
2023-02-22T15:05:50.137Z,1.40
2023-02-22T15:08:18.651Z,6.03
2023-02-22T15:10:47.540Z,2.60
2023-02-22T15:13:34.298Z,3.42
2023-02-22T15:16:03.264Z,2.10
2023-02-22T15:18:42.648Z,2.42
2023-02-22T15:21:24.932Z,1.13
2023-02-22T15:23:55.051Z,2.03
2023-02-22T15:26:49.042Z,2.80
2023-02-22T15:29:23.843Z,2.03
2023-02-22T15:31:52.008Z,1.45
2023-02-22T15:34:22.251Z,3.60
2023-02-22T15:36:50.434Z,2.88
2023-02-22T15:42:09.884Z,1.10
2023-02-22T15:44:41.310Z,0.95
2023-02-22T15:47:16.348Z,1.52
2023-02-22T15:49:42.964Z,5.90
2023-02-22T15:52:19.501Z,2.97
2023-02-22T15:54:50.284Z,4.25
2023-02-22T15:57:20.132Z,5.15
2023-02-22T15:59:53.052Z,3.72
2023-02-22T16:02:33.148Z,2.30
2023-02-22T16:05:05.129Z,3.70
2023-02-22T16:07:32.313Z,1.33
2023-02-22T16:09:59.738Z,1.30
2023-02-22T16:12:28.217Z,1.17
2023-02-22T16:14:55.666Z,1.52
2023-02-22T16:17:22.229Z,5.18
2023-02-22T16:19:48.771Z,13.15
2023-02-22T16:22:33.575Z,7.68
2023-02-22T16:25:19.939Z,7.40
2023-02-22T16:28:01.362Z,5.53
2023-02-22T16:30:31.787Z,6.40
2023-02-22T16:32:58.394Z,5.15
2023-02-22T16:35:26.336Z,7.15
2023-02-22T16:38:01.869Z,3.38
2023-02-22T16:40:33.208Z,1.92
2023-02-22T16:43:06.295Z,3.28
2023-02-22T16:45:32.911Z,1.60
2023-02-22T16:48:00.385Z,5.50
2023-02-22T16:50:26.968Z,2.50
2023-02-22T16:52:56.005Z,1.05
2023-02-22T16:55:22.812Z,0.98
2023-02-22T16:57:50.691Z,6.60
2023-02-22T17:00:23.789Z,3.50
2023-02-22T17:02:50.227Z,1.45
2023-02-22T17:05:17.002Z,6.97
2023-02-22T17:07:43.491Z,6.78
2023-02-22T17:10:17.716Z,3.25
2023-02-22T17:12:46.960Z,3.80
2023-02-22T17:15:34.962Z,2.10
2023-02-22T17:18:03.350Z,3.30
2023-02-22T17:20:31.413Z,9.05
2023-02-22T17:23:00.374Z,6.28
2023-02-22T17:25:33.368Z,9.85
2023-02-22T17:28:00.153Z,3.28
2023-02-22T17:30:26.778Z,11.05
2023-02-22T17:32:53.528Z,7.95
2023-02-22T17:35:22.077Z,5.50
2023-02-22T17:37:50.253Z,4.68
2023-02-22T17:42:45.096Z,5.78
2023-02-22T17:47:42.838Z,2.65
2023-02-22T17:50:11.613Z,3.92
2023-02-22T17:52:38.702Z,6.07
2023-02-22T17:55:05.912Z,4.60
2023-02-22T17:57:32.585Z,8.07
2023-02-22T18:00:02.258Z,8.60
2023-02-22T18:02:28.804Z,18.25
2023-02-22T18:04:55.360Z,6.97
2023-02-22T18:07:22.105Z,6.80
2023-02-22T18:09:48.843Z,4.90
2023-02-22T18:12:15.456Z,2.80
2023-02-22T18:14:42.037Z,10.10
2023-02-22T18:17:08.581Z,2.50
2023-02-22T18:19:35.140Z,3.22
2023-02-22T18:22:01.593Z,6.70
2023-02-22T18:24:28.080Z,4.72
2023-02-22T18:26:54.729Z,5.60
2023-02-22T18:29:21.450Z,5.97
2023-02-22T18:31:48.129Z,7.57
2023-02-22T18:34:14.628Z,5.30
2023-02-22T18:36:41.432Z,7.47
2023-02-22T18:39:10.585Z,7.47
2023-02-22T18:41:38.215Z,12.05
2023-02-22T18:44:05.404Z,5.78
2023-02-22T18:46:32.539Z,7.43
2023-02-22T18:48:59.353Z,5.93
2023-02-22T18:51:26.498Z,2.45
2023-02-22T18:53:56.046Z,0.80
2023-02-22T18:56:23.000Z,4.13
2023-02-22T18:58:57.098Z,5.53
2023-02-22T19:01:23.702Z,3.83
2023-02-22T19:03:50.301Z,6.18
2023-02-22T19:06:18.293Z,6.30
2023-02-22T19:08:46.421Z,11.00
2023-02-22T19:13:40.554Z,4.93
2023-02-22T19:16:07.436Z,2.65
2023-02-22T19:18:34.696Z,3.72
2023-02-22T19:21:03.736Z,16.67
2023-02-22T19:23:34.200Z,36.90
2023-02-22T19:26:03.023Z,32.35
2023-02-22T19:28:30.021Z,25.50
2023-02-22T19:30:56.679Z,9.30
2023-02-22T19:33:23.224Z,6.85
2023-02-22T19:35:49.709Z,4.97
2023-02-22T19:38:16.303Z,1.40
2023-02-22T19:40:42.790Z,2.03
2023-02-22T19:43:09.361Z,3.17
2023-02-22T19:45:39.486Z,5.40
2023-02-22T19:48:06.249Z,3.60
2023-02-22T19:50:32.802Z,5.18
2023-02-22T19:52:59.410Z,2.50
2023-02-22T19:55:25.952Z,2.45
2023-02-22T19:57:52.505Z,6.93
2023-02-22T20:00:19.050Z,5.88
2023-02-22T20:02:45.641Z,5.90
2023-02-22T20:05:12.381Z,3.35
2023-02-22T20:07:39.221Z,3.70
2023-02-22T20:10:06.118Z,2.92
2023-02-22T20:12:32.765Z,4.85
2023-02-22T20:14:59.236Z,3.60
2023-02-22T20:17:27.110Z,7.60
2023-02-22T20:19:54.040Z,5.10
2023-02-22T20:22:21.505Z,11.63
2023-02-22T20:24:48.239Z,5.43
2023-02-22T20:27:15.347Z,6.03
2023-02-22T20:29:41.915Z,7.38
2023-02-22T20:32:12.856Z,8.38
2023-02-22T20:34:39.512Z,10.95
2023-02-22T20:37:06.080Z,8.75
2023-02-22T20:39:32.648Z,8.32
2023-02-22T20:41:59.147Z,7.32
2023-02-22T20:44:25.945Z,7.90
2023-02-22T20:46:52.467Z,8.45
2023-02-22T20:49:20.032Z,10.30
2023-02-22T20:51:48.184Z,7.50
2023-02-22T20:56:44.373Z,8.00
2023-02-22T20:59:13.513Z,7.75
2023-02-22T21:01:40.533Z,9.50
2023-02-22T21:04:08.551Z,8.35
2023-02-22T21:06:36.025Z,9.70
2023-02-22T21:09:04.419Z,7.30
2023-02-22T21:11:31.392Z,7.65
2023-02-22T21:13:58.892Z,14.40
2023-02-22T21:16:29.108Z,7.45
2023-02-22T21:18:59.782Z,8.40
2023-02-22T21:21:27.930Z,7.47
2023-02-22T21:26:25.276Z,11.85
2023-02-22T21:28:52.534Z,11.63
2023-02-22T21:31:22.013Z,8.27
2023-02-22T21:33:51.081Z,9.40
2023-02-22T21:36:18.654Z,7.18
2023-02-22T21:38:47.390Z,6.68
2023-02-22T21:41:16.235Z,9.25
2023-02-22T21:43:43.959Z,8.70
2023-02-22T21:46:10.873Z,9.65
2023-02-22T21:48:45.158Z,11.18
2023-02-22T21:51:15.215Z,10.40
2023-02-22T21:53:50.169Z,8.80
2023-02-22T21:56:20.419Z,9.38
2023-02-22T21:58:47.965Z,8.85
2023-02-22T22:01:14.546Z,10.10
2023-02-22T22:03:41.221Z,11.70
2023-02-22T22:06:09.113Z,6.22
2023-02-22T22:08:37.446Z,15.05
2023-02-22T22:11:05.806Z,10.25
2023-02-22T22:13:32.353Z,11.93
2023-02-22T22:16:04.126Z,10.77
2023-02-22T22:18:30.653Z,8.45
2023-02-22T22:20:57.433Z,8.75
2023-02-22T22:23:24.025Z,10.15
2023-02-22T22:25:50.956Z,11.20
2023-02-22T22:28:17.457Z,9.93
2023-02-22T22:30:44.175Z,13.75
2023-02-22T22:33:10.753Z,8.18
2023-02-22T22:35:39.933Z,9.55
2023-02-22T22:38:06.497Z,9.98
2023-02-22T22:40:33.175Z,11.32
2023-02-22T22:42:59.685Z,10.32
2023-02-22T22:45:26.367Z,11.23
2023-02-22T22:47:52.949Z,12.75
2023-02-22T22:50:19.714Z,11.63
2023-02-22T22:52:46.493Z,10.13
2023-02-22T22:55:13.179Z,11.38
2023-02-22T22:57:40.819Z,11.65
2023-02-22T23:00:12.957Z,8.55
2023-02-22T23:02:39.551Z,11.18
2023-02-22T23:05:06.364Z,8.35
2023-02-22T23:07:32.881Z,9.00
2023-02-22T23:09:59.396Z,8.75
2023-02-22T23:12:26.138Z,13.00
2023-02-22T23:14:52.822Z,10.98
2023-02-22T23:17:19.284Z,12.13
2023-02-22T23:19:45.882Z,10.02
2023-02-22T23:22:12.504Z,9.20
2023-02-22T23:24:39.958Z,9.65
2023-02-22T23:27:07.299Z,12.32
2023-02-22T23:29:37.975Z,8.25
2023-02-22T23:32:05.315Z,14.85
2023-02-22T23:34:32.959Z,8.57
2023-02-22T23:36:59.472Z,13.95
2023-02-22T23:39:26.165Z,10.52
2023-02-22T23:41:55.164Z,10.23
2023-02-22T23:44:22.105Z,10.95
2023-02-22T23:46:50.027Z,9.80
2023-02-22T23:49:17.378Z,12.40
2023-02-22T23:51:44.084Z,9.38
2023-02-22T23:54:13.344Z,12.20
2023-02-22T23:56:40.930Z,8.48
2023-02-22T23:59:07.815Z,9.98
